<?xml version="1.0" encoding="UTF-8" standalone="no" ?>
<gpx xmlns="http://www.topografix.com/GPX/1/1" xmlns:xsi="http://www.w3.org/2001/XMLSchema-instance" xsi:schemaLocation="http://www.topografix.com/GPX/1/1 http://www.topografix.com/GPX/1/1/gpx.xsd" version="1.1" creator="VisuGPX - https://www.visugpx.com">
  <metadata>
    <name>9872732-Sentier des étangs de la Bresse jurassienne</name>
  </metadata>
  <trk>
    <name><![CDATA[9872732-Sentier des étangs de la Bresse jurassienne]]></name>
    <trkseg>
      <trkpt lat="46.88182" lon="5.47116">
        <ele>208</ele>
        <time>2020-09-29T13:00:51Z</time>
      </trkpt>
      <trkpt lat="46.88211" lon="5.47115">
        <ele>208</ele>
        <time>2020-09-29T13:01:30Z</time>
      </trkpt>
      <trkpt lat="46.88249" lon="5.47128">
        <ele>208</ele>
        <time>2020-09-29T13:02:22Z</time>
      </trkpt>
      <trkpt lat="46.88285" lon="5.47148">
        <ele>209</ele>
        <time>2020-09-29T13:03:13Z</time>
      </trkpt>
      <trkpt lat="46.8832" lon="5.47163">
        <ele>210</ele>
        <time>2020-09-29T13:04:02Z</time>
      </trkpt>
      <trkpt lat="46.88315" lon="5.47204">
        <ele>210</ele>
        <time>2020-09-29T13:04:40Z</time>
      </trkpt>
      <trkpt lat="46.88308" lon="5.47248">
        <ele>209</ele>
        <time>2020-09-29T13:05:21Z</time>
      </trkpt>
      <trkpt lat="46.88285" lon="5.47336">
        <ele>206</ele>
        <time>2020-09-29T13:06:47Z</time>
      </trkpt>
      <trkpt lat="46.88279" lon="5.47362">
        <ele>206</ele>
        <time>2020-09-29T13:07:12Z</time>
      </trkpt>
      <trkpt lat="46.88273" lon="5.47392">
        <ele>205</ele>
        <time>2020-09-29T13:07:41Z</time>
      </trkpt>
      <trkpt lat="46.88273" lon="5.47422">
        <ele>205</ele>
        <time>2020-09-29T13:08:08Z</time>
      </trkpt>
      <trkpt lat="46.88286" lon="5.4757">
        <ele>212</ele>
        <time>2020-09-29T13:10:24Z</time>
      </trkpt>
      <trkpt lat="46.88285" lon="5.47608">
        <ele>213</ele>
        <time>2020-09-29T13:10:59Z</time>
      </trkpt>
      <trkpt lat="46.88262" lon="5.47863">
        <ele>214</ele>
        <time>2020-09-29T13:14:53Z</time>
      </trkpt>
      <trkpt lat="46.88261" lon="5.47918">
        <ele>212</ele>
        <time>2020-09-29T13:15:43Z</time>
      </trkpt>
      <trkpt lat="46.88265" lon="5.47958">
        <ele>211</ele>
        <time>2020-09-29T13:16:20Z</time>
      </trkpt>
      <trkpt lat="46.88275" lon="5.47998">
        <ele>209</ele>
        <time>2020-09-29T13:16:59Z</time>
      </trkpt>
      <trkpt lat="46.88281" lon="5.47996">
        <ele>210</ele>
        <time>2020-09-29T13:17:07Z</time>
      </trkpt>
      <trkpt lat="46.88294" lon="5.47996">
        <ele>210</ele>
        <time>2020-09-29T13:17:25Z</time>
      </trkpt>
      <trkpt lat="46.88353" lon="5.48011">
        <ele>212</ele>
        <time>2020-09-29T13:18:45Z</time>
      </trkpt>
      <trkpt lat="46.88536" lon="5.48043">
        <ele>213</ele>
        <time>2020-09-29T13:22:51Z</time>
      </trkpt>
      <trkpt lat="46.88586" lon="5.48066">
        <ele>214</ele>
        <time>2020-09-29T13:24:01Z</time>
      </trkpt>
      <trkpt lat="46.88607" lon="5.48077">
        <ele>214</ele>
        <time>2020-09-29T13:24:30Z</time>
      </trkpt>
      <trkpt lat="46.88619" lon="5.48089">
        <ele>214</ele>
        <time>2020-09-29T13:24:50Z</time>
      </trkpt>
      <trkpt lat="46.88647" lon="5.48122">
        <ele>214</ele>
        <time>2020-09-29T13:25:38Z</time>
      </trkpt>
      <trkpt lat="46.8866" lon="5.48141">
        <ele>214</ele>
        <time>2020-09-29T13:26:02Z</time>
      </trkpt>
      <trkpt lat="46.88667" lon="5.48153">
        <ele>213</ele>
        <time>2020-09-29T13:26:17Z</time>
      </trkpt>
      <trkpt lat="46.88666" lon="5.48163">
        <ele>213</ele>
        <time>2020-09-29T13:26:26Z</time>
      </trkpt>
      <trkpt lat="46.8866" lon="5.48178">
        <ele>213</ele>
        <time>2020-09-29T13:26:42Z</time>
      </trkpt>
      <trkpt lat="46.88632" lon="5.4824">
        <ele>212</ele>
        <time>2020-09-29T13:27:49Z</time>
      </trkpt>
      <trkpt lat="46.88622" lon="5.48251">
        <ele>211</ele>
        <time>2020-09-29T13:28:06Z</time>
      </trkpt>
      <trkpt lat="46.88609" lon="5.48256">
        <ele>211</ele>
        <time>2020-09-29T13:28:24Z</time>
      </trkpt>
      <trkpt lat="46.88597" lon="5.48258">
        <ele>211</ele>
        <time>2020-09-29T13:28:40Z</time>
      </trkpt>
      <trkpt lat="46.88589" lon="5.48264">
        <ele>211</ele>
        <time>2020-09-29T13:28:52Z</time>
      </trkpt>
      <trkpt lat="46.88582" lon="5.48275">
        <ele>210</ele>
        <time>2020-09-29T13:29:06Z</time>
      </trkpt>
      <trkpt lat="46.88578" lon="5.48287">
        <ele>210</ele>
        <time>2020-09-29T13:29:18Z</time>
      </trkpt>
      <trkpt lat="46.88569" lon="5.48297">
        <ele>210</ele>
        <time>2020-09-29T13:29:33Z</time>
      </trkpt>
      <trkpt lat="46.88556" lon="5.48305">
        <ele>210</ele>
        <time>2020-09-29T13:29:52Z</time>
      </trkpt>
      <trkpt lat="46.8854" lon="5.48308">
        <ele>210</ele>
        <time>2020-09-29T13:30:13Z</time>
      </trkpt>
      <trkpt lat="46.88526" lon="5.48302">
        <ele>210</ele>
        <time>2020-09-29T13:30:33Z</time>
      </trkpt>
      <trkpt lat="46.88463" lon="5.48263">
        <ele>212</ele>
        <time>2020-09-29T13:32:04Z</time>
      </trkpt>
      <trkpt lat="46.8844" lon="5.48319">
        <ele>211</ele>
        <time>2020-09-29T13:33:04Z</time>
      </trkpt>
      <trkpt lat="46.8841" lon="5.48373">
        <ele>210</ele>
        <time>2020-09-29T13:34:07Z</time>
      </trkpt>
      <trkpt lat="46.88406" lon="5.48383">
        <ele>210</ele>
        <time>2020-09-29T13:34:18Z</time>
      </trkpt>
      <trkpt lat="46.88406" lon="5.48395">
        <ele>209</ele>
        <time>2020-09-29T13:34:29Z</time>
      </trkpt>
      <trkpt lat="46.88411" lon="5.48405">
        <ele>209</ele>
        <time>2020-09-29T13:34:40Z</time>
      </trkpt>
      <trkpt lat="46.88418" lon="5.48418">
        <ele>209</ele>
        <time>2020-09-29T13:34:55Z</time>
      </trkpt>
      <trkpt lat="46.88424" lon="5.48436">
        <ele>208</ele>
        <time>2020-09-29T13:35:13Z</time>
      </trkpt>
      <trkpt lat="46.8843" lon="5.48468">
        <ele>207</ele>
        <time>2020-09-29T13:35:44Z</time>
      </trkpt>
      <trkpt lat="46.88448" lon="5.48566">
        <ele>207</ele>
        <time>2020-09-29T13:37:16Z</time>
      </trkpt>
      <trkpt lat="46.88439" lon="5.48577">
        <ele>207</ele>
        <time>2020-09-29T13:37:32Z</time>
      </trkpt>
      <trkpt lat="46.88419" lon="5.48587">
        <ele>207</ele>
        <time>2020-09-29T13:38:00Z</time>
      </trkpt>
      <trkpt lat="46.88407" lon="5.48611">
        <ele>207</ele>
        <time>2020-09-29T13:38:27Z</time>
      </trkpt>
      <trkpt lat="46.88383" lon="5.48659">
        <ele>208</ele>
        <time>2020-09-29T13:39:22Z</time>
      </trkpt>
      <trkpt lat="46.88366" lon="5.48692">
        <ele>209</ele>
        <time>2020-09-29T13:39:59Z</time>
      </trkpt>
      <trkpt lat="46.88309" lon="5.48774">
        <ele>212</ele>
        <time>2020-09-29T13:41:46Z</time>
      </trkpt>
      <trkpt lat="46.88252" lon="5.48837">
        <ele>211</ele>
        <time>2020-09-29T13:43:21Z</time>
      </trkpt>
      <trkpt lat="46.8821" lon="5.48872">
        <ele>208</ele>
        <time>2020-09-29T13:44:26Z</time>
      </trkpt>
      <trkpt lat="46.88189" lon="5.48886">
        <ele>207</ele>
        <time>2020-09-29T13:44:56Z</time>
      </trkpt>
      <trkpt lat="46.88123" lon="5.48928">
        <ele>207</ele>
        <time>2020-09-29T13:46:33Z</time>
      </trkpt>
      <trkpt lat="46.88118" lon="5.4894">
        <ele>207</ele>
        <time>2020-09-29T13:46:45Z</time>
      </trkpt>
      <trkpt lat="46.88115" lon="5.48967">
        <ele>207</ele>
        <time>2020-09-29T13:47:10Z</time>
      </trkpt>
      <trkpt lat="46.88111" lon="5.48987">
        <ele>206</ele>
        <time>2020-09-29T13:47:29Z</time>
      </trkpt>
      <trkpt lat="46.88103" lon="5.49013">
        <ele>206</ele>
        <time>2020-09-29T13:47:55Z</time>
      </trkpt>
      <trkpt lat="46.88079" lon="5.49069">
        <ele>206</ele>
        <time>2020-09-29T13:48:56Z</time>
      </trkpt>
      <trkpt lat="46.88072" lon="5.49082">
        <ele>206</ele>
        <time>2020-09-29T13:49:11Z</time>
      </trkpt>
      <trkpt lat="46.88059" lon="5.49097">
        <ele>207</ele>
        <time>2020-09-29T13:49:33Z</time>
      </trkpt>
      <trkpt lat="46.88044" lon="5.49114">
        <ele>208</ele>
        <time>2020-09-29T13:49:58Z</time>
      </trkpt>
      <trkpt lat="46.88029" lon="5.49134">
        <ele>209</ele>
        <time>2020-09-29T13:50:25Z</time>
      </trkpt>
      <trkpt lat="46.88018" lon="5.49155">
        <ele>210</ele>
        <time>2020-09-29T13:50:49Z</time>
      </trkpt>
      <trkpt lat="46.8801" lon="5.49171">
        <ele>211</ele>
        <time>2020-09-29T13:51:07Z</time>
      </trkpt>
      <trkpt lat="46.88" lon="5.49183">
        <ele>212</ele>
        <time>2020-09-29T13:51:25Z</time>
      </trkpt>
      <trkpt lat="46.87988" lon="5.49185">
        <ele>212</ele>
        <time>2020-09-29T13:51:41Z</time>
      </trkpt>
      <trkpt lat="46.87976" lon="5.49183">
        <ele>212</ele>
        <time>2020-09-29T13:51:57Z</time>
      </trkpt>
      <trkpt lat="46.87963" lon="5.49177">
        <ele>212</ele>
        <time>2020-09-29T13:52:15Z</time>
      </trkpt>
      <trkpt lat="46.87949" lon="5.49165">
        <ele>212</ele>
        <time>2020-09-29T13:52:37Z</time>
      </trkpt>
      <trkpt lat="46.87938" lon="5.49149">
        <ele>211</ele>
        <time>2020-09-29T13:52:57Z</time>
      </trkpt>
      <trkpt lat="46.87924" lon="5.49135">
        <ele>211</ele>
        <time>2020-09-29T13:53:20Z</time>
      </trkpt>
      <trkpt lat="46.87912" lon="5.49131">
        <ele>211</ele>
        <time>2020-09-29T13:53:37Z</time>
      </trkpt>
      <trkpt lat="46.87924" lon="5.49148">
        <ele>212</ele>
        <time>2020-09-29T13:53:59Z</time>
      </trkpt>
      <trkpt lat="46.87935" lon="5.49187">
        <ele>212</ele>
        <time>2020-09-29T13:54:37Z</time>
      </trkpt>
      <trkpt lat="46.87956" lon="5.49282">
        <ele>216</ele>
        <time>2020-09-29T13:56:08Z</time>
      </trkpt>
      <trkpt lat="46.87961" lon="5.49465">
        <ele>220</ele>
        <time>2020-09-29T13:58:55Z</time>
      </trkpt>
      <trkpt lat="46.87967" lon="5.49676">
        <ele>221</ele>
        <time>2020-09-29T14:02:08Z</time>
      </trkpt>
      <trkpt lat="46.8797" lon="5.49766">
        <ele>220</ele>
        <time>2020-09-29T14:03:30Z</time>
      </trkpt>
      <trkpt lat="46.87975" lon="5.4998">
        <ele>219</ele>
        <time>2020-09-29T14:06:46Z</time>
      </trkpt>
      <trkpt lat="46.87979" lon="5.4999">
        <ele>218</ele>
        <time>2020-09-29T14:06:56Z</time>
      </trkpt>
      <trkpt lat="46.87987" lon="5.49998">
        <ele>218</ele>
        <time>2020-09-29T14:07:09Z</time>
      </trkpt>
      <trkpt lat="46.88019" lon="5.50005">
        <ele>218</ele>
        <time>2020-09-29T14:07:52Z</time>
      </trkpt>
      <trkpt lat="46.88081" lon="5.50012">
        <ele>220</ele>
        <time>2020-09-29T14:09:15Z</time>
      </trkpt>
      <trkpt lat="46.88113" lon="5.50018">
        <ele>219</ele>
        <time>2020-09-29T14:09:58Z</time>
      </trkpt>
      <trkpt lat="46.88166" lon="5.50024">
        <ele>217</ele>
        <time>2020-09-29T14:11:09Z</time>
      </trkpt>
      <trkpt lat="46.88206" lon="5.50031">
        <ele>216</ele>
        <time>2020-09-29T14:12:03Z</time>
      </trkpt>
      <trkpt lat="46.88227" lon="5.50045">
        <ele>215</ele>
        <time>2020-09-29T14:12:34Z</time>
      </trkpt>
      <trkpt lat="46.88237" lon="5.50045">
        <ele>214</ele>
        <time>2020-09-29T14:12:47Z</time>
      </trkpt>
      <trkpt lat="46.88312" lon="5.50017">
        <ele>217</ele>
        <time>2020-09-29T14:14:30Z</time>
      </trkpt>
      <trkpt lat="46.8838" lon="5.50027">
        <ele>221</ele>
        <time>2020-09-29T14:16:02Z</time>
      </trkpt>
      <trkpt lat="46.88534" lon="5.50054">
        <ele>224</ele>
        <time>2020-09-29T14:19:29Z</time>
      </trkpt>
      <trkpt lat="46.88638" lon="5.50068">
        <ele>220</ele>
        <time>2020-09-29T14:21:48Z</time>
      </trkpt>
      <trkpt lat="46.88655" lon="5.50069">
        <ele>219</ele>
        <time>2020-09-29T14:22:11Z</time>
      </trkpt>
      <trkpt lat="46.8869" lon="5.50051">
        <ele>218</ele>
        <time>2020-09-29T14:23:00Z</time>
      </trkpt>
      <trkpt lat="46.88701" lon="5.50047">
        <ele>218</ele>
        <time>2020-09-29T14:23:15Z</time>
      </trkpt>
      <trkpt lat="46.88714" lon="5.50047">
        <ele>218</ele>
        <time>2020-09-29T14:23:33Z</time>
      </trkpt>
      <trkpt lat="46.88744" lon="5.50039">
        <ele>217</ele>
        <time>2020-09-29T14:24:13Z</time>
      </trkpt>
      <trkpt lat="46.88758" lon="5.50029">
        <ele>217</ele>
        <time>2020-09-29T14:24:34Z</time>
      </trkpt>
      <trkpt lat="46.88786" lon="5.50026">
        <ele>215</ele>
        <time>2020-09-29T14:25:12Z</time>
      </trkpt>
      <trkpt lat="46.88794" lon="5.5002">
        <ele>215</ele>
        <time>2020-09-29T14:25:24Z</time>
      </trkpt>
      <trkpt lat="46.888" lon="5.50009">
        <ele>215</ele>
        <time>2020-09-29T14:25:36Z</time>
      </trkpt>
      <trkpt lat="46.88805" lon="5.49986">
        <ele>215</ele>
        <time>2020-09-29T14:25:58Z</time>
      </trkpt>
      <trkpt lat="46.88813" lon="5.49938">
        <ele>217</ele>
        <time>2020-09-29T14:26:43Z</time>
      </trkpt>
      <trkpt lat="46.88824" lon="5.49898">
        <ele>217</ele>
        <time>2020-09-29T14:27:23Z</time>
      </trkpt>
      <trkpt lat="46.88857" lon="5.49811">
        <ele>213</ele>
        <time>2020-09-29T14:28:54Z</time>
      </trkpt>
      <trkpt lat="46.88885" lon="5.49743">
        <ele>211</ele>
        <time>2020-09-29T14:30:06Z</time>
      </trkpt>
      <trkpt lat="46.88901" lon="5.49711">
        <ele>212</ele>
        <time>2020-09-29T14:30:42Z</time>
      </trkpt>
      <trkpt lat="46.88926" lon="5.49667">
        <ele>214</ele>
        <time>2020-09-29T14:31:34Z</time>
      </trkpt>
      <trkpt lat="46.88943" lon="5.49632">
        <ele>216</ele>
        <time>2020-09-29T14:32:13Z</time>
      </trkpt>
      <trkpt lat="46.88976" lon="5.49573">
        <ele>217</ele>
        <time>2020-09-29T14:33:23Z</time>
      </trkpt>
      <trkpt lat="46.88993" lon="5.49532">
        <ele>218</ele>
        <time>2020-09-29T14:34:07Z</time>
      </trkpt>
      <trkpt lat="46.88998" lon="5.49518">
        <ele>218</ele>
        <time>2020-09-29T14:34:21Z</time>
      </trkpt>
      <trkpt lat="46.88998" lon="5.49511">
        <ele>218</ele>
        <time>2020-09-29T14:34:28Z</time>
      </trkpt>
      <trkpt lat="46.89007" lon="5.4951">
        <ele>218</ele>
        <time>2020-09-29T14:34:40Z</time>
      </trkpt>
      <trkpt lat="46.89076" lon="5.49579">
        <ele>217</ele>
        <time>2020-09-29T14:36:31Z</time>
      </trkpt>
      <trkpt lat="46.89098" lon="5.49606">
        <ele>217</ele>
        <time>2020-09-29T14:37:09Z</time>
      </trkpt>
      <trkpt lat="46.89114" lon="5.49624">
        <ele>217</ele>
        <time>2020-09-29T14:37:36Z</time>
      </trkpt>
      <trkpt lat="46.8917" lon="5.49689">
        <ele>217</ele>
        <time>2020-09-29T14:39:12Z</time>
      </trkpt>
      <trkpt lat="46.89208" lon="5.4973">
        <ele>217</ele>
        <time>2020-09-29T14:40:15Z</time>
      </trkpt>
      <trkpt lat="46.89249" lon="5.49771">
        <ele>217</ele>
        <time>2020-09-29T14:41:21Z</time>
      </trkpt>
      <trkpt lat="46.89373" lon="5.49882">
        <ele>217</ele>
        <time>2020-09-29T14:44:35Z</time>
      </trkpt>
      <trkpt lat="46.89398" lon="5.49908">
        <ele>217</ele>
        <time>2020-09-29T14:45:16Z</time>
      </trkpt>
      <trkpt lat="46.89428" lon="5.49962">
        <ele>218</ele>
        <time>2020-09-29T14:46:19Z</time>
      </trkpt>
      <trkpt lat="46.8944" lon="5.5">
        <ele>218</ele>
        <time>2020-09-29T14:46:58Z</time>
      </trkpt>
      <trkpt lat="46.89443" lon="5.50044">
        <ele>217</ele>
        <time>2020-09-29T14:47:38Z</time>
      </trkpt>
      <trkpt lat="46.89455" lon="5.50115">
        <ele>217</ele>
        <time>2020-09-29T14:48:45Z</time>
      </trkpt>
      <trkpt lat="46.89469" lon="5.50151">
        <ele>218</ele>
        <time>2020-09-29T14:49:22Z</time>
      </trkpt>
      <trkpt lat="46.89485" lon="5.50166">
        <ele>219</ele>
        <time>2020-09-29T14:49:48Z</time>
      </trkpt>
      <trkpt lat="46.89497" lon="5.50188">
        <ele>219</ele>
        <time>2020-09-29T14:50:13Z</time>
      </trkpt>
      <trkpt lat="46.8951" lon="5.50201">
        <ele>220</ele>
        <time>2020-09-29T14:50:34Z</time>
      </trkpt>
      <trkpt lat="46.89514" lon="5.5022">
        <ele>221</ele>
        <time>2020-09-29T14:50:52Z</time>
      </trkpt>
      <trkpt lat="46.89519" lon="5.50235">
        <ele>221</ele>
        <time>2020-09-29T14:51:08Z</time>
      </trkpt>
      <trkpt lat="46.89529" lon="5.50247">
        <ele>222</ele>
        <time>2020-09-29T14:51:25Z</time>
      </trkpt>
      <trkpt lat="46.89548" lon="5.50259">
        <ele>222</ele>
        <time>2020-09-29T14:51:53Z</time>
      </trkpt>
      <trkpt lat="46.89558" lon="5.50289">
        <ele>222</ele>
        <time>2020-09-29T14:52:23Z</time>
      </trkpt>
      <trkpt lat="46.89569" lon="5.50297">
        <ele>222</ele>
        <time>2020-09-29T14:52:39Z</time>
      </trkpt>
      <trkpt lat="46.89588" lon="5.50292">
        <ele>222</ele>
        <time>2020-09-29T14:53:05Z</time>
      </trkpt>
      <trkpt lat="46.89602" lon="5.50298">
        <ele>222</ele>
        <time>2020-09-29T14:53:25Z</time>
      </trkpt>
      <trkpt lat="46.89664" lon="5.50339">
        <ele>223</ele>
        <time>2020-09-29T14:54:55Z</time>
      </trkpt>
      <trkpt lat="46.89775" lon="5.5046">
        <ele>221</ele>
        <time>2020-09-29T14:58:00Z</time>
      </trkpt>
      <trkpt lat="46.89784" lon="5.50473">
        <ele>221</ele>
        <time>2020-09-29T14:58:17Z</time>
      </trkpt>
      <trkpt lat="46.89807" lon="5.50437">
        <ele>223</ele>
        <time>2020-09-29T14:59:02Z</time>
      </trkpt>
      <trkpt lat="46.90161" lon="5.49757">
        <ele>224</ele>
        <time>2020-09-29T15:12:01Z</time>
      </trkpt>
      <trkpt lat="46.90299" lon="5.49496">
        <ele>228</ele>
        <time>2020-09-29T15:17:02Z</time>
      </trkpt>
      <trkpt lat="46.904" lon="5.49305">
        <ele>228</ele>
        <time>2020-09-29T15:20:43Z</time>
      </trkpt>
      <trkpt lat="46.90423" lon="5.4926">
        <ele>226</ele>
        <time>2020-09-29T15:21:34Z</time>
      </trkpt>
      <trkpt lat="46.90533" lon="5.49052">
        <ele>223</ele>
        <time>2020-09-29T15:25:34Z</time>
      </trkpt>
      <trkpt lat="46.90543" lon="5.49031">
        <ele>222</ele>
        <time>2020-09-29T15:25:57Z</time>
      </trkpt>
      <trkpt lat="46.90552" lon="5.49016">
        <ele>222</ele>
        <time>2020-09-29T15:26:15Z</time>
      </trkpt>
      <trkpt lat="46.90572" lon="5.48989">
        <ele>221</ele>
        <time>2020-09-29T15:26:51Z</time>
      </trkpt>
      <trkpt lat="46.90598" lon="5.4895">
        <ele>219</ele>
        <time>2020-09-29T15:27:41Z</time>
      </trkpt>
      <trkpt lat="46.90602" lon="5.48921">
        <ele>218</ele>
        <time>2020-09-29T15:28:08Z</time>
      </trkpt>
      <trkpt lat="46.906" lon="5.48882">
        <ele>216</ele>
        <time>2020-09-29T15:28:44Z</time>
      </trkpt>
      <trkpt lat="46.90606" lon="5.48865">
        <ele>215</ele>
        <time>2020-09-29T15:29:01Z</time>
      </trkpt>
      <trkpt lat="46.90616" lon="5.48849">
        <ele>215</ele>
        <time>2020-09-29T15:29:21Z</time>
      </trkpt>
      <trkpt lat="46.90622" lon="5.4884">
        <ele>215</ele>
        <time>2020-09-29T15:29:32Z</time>
      </trkpt>
      <trkpt lat="46.90626" lon="5.48829">
        <ele>215</ele>
        <time>2020-09-29T15:29:44Z</time>
      </trkpt>
      <trkpt lat="46.90628" lon="5.48818">
        <ele>216</ele>
        <time>2020-09-29T15:29:54Z</time>
      </trkpt>
      <trkpt lat="46.90626" lon="5.48809">
        <ele>216</ele>
        <time>2020-09-29T15:30:03Z</time>
      </trkpt>
      <trkpt lat="46.90624" lon="5.48798">
        <ele>216</ele>
        <time>2020-09-29T15:30:13Z</time>
      </trkpt>
      <trkpt lat="46.90613" lon="5.48616">
        <ele>218</ele>
        <time>2020-09-29T15:33:00Z</time>
      </trkpt>
      <trkpt lat="46.90597" lon="5.48626">
        <ele>217</ele>
        <time>2020-09-29T15:33:23Z</time>
      </trkpt>
      <trkpt lat="46.90559" lon="5.48568">
        <ele>218</ele>
        <time>2020-09-29T15:34:36Z</time>
      </trkpt>
      <trkpt lat="46.90585" lon="5.48218">
        <ele>223</ele>
        <time>2020-09-29T15:39:57Z</time>
      </trkpt>
      <trkpt lat="46.90469" lon="5.48205">
        <ele>225</ele>
        <time>2020-09-29T15:42:32Z</time>
      </trkpt>
      <trkpt lat="46.90411" lon="5.48197">
        <ele>224</ele>
        <time>2020-09-29T15:43:50Z</time>
      </trkpt>
      <trkpt lat="46.90385" lon="5.48196">
        <ele>223</ele>
        <time>2020-09-29T15:44:25Z</time>
      </trkpt>
      <trkpt lat="46.90362" lon="5.48195">
        <ele>223</ele>
        <time>2020-09-29T15:44:56Z</time>
      </trkpt>
      <trkpt lat="46.90365" lon="5.48124">
        <ele>224</ele>
        <time>2020-09-29T15:46:00Z</time>
      </trkpt>
      <trkpt lat="46.90374" lon="5.47912">
        <ele>224</ele>
        <time>2020-09-29T15:49:14Z</time>
      </trkpt>
      <trkpt lat="46.90379" lon="5.4785">
        <ele>222</ele>
        <time>2020-09-29T15:50:11Z</time>
      </trkpt>
      <trkpt lat="46.90383" lon="5.47833">
        <ele>221</ele>
        <time>2020-09-29T15:50:27Z</time>
      </trkpt>
      <trkpt lat="46.90391" lon="5.47813">
        <ele>220</ele>
        <time>2020-09-29T15:50:49Z</time>
      </trkpt>
      <trkpt lat="46.90407" lon="5.47785">
        <ele>219</ele>
        <time>2020-09-29T15:51:22Z</time>
      </trkpt>
      <trkpt lat="46.90423" lon="5.47761">
        <ele>218</ele>
        <time>2020-09-29T15:51:52Z</time>
      </trkpt>
      <trkpt lat="46.90438" lon="5.47744">
        <ele>218</ele>
        <time>2020-09-29T15:52:18Z</time>
      </trkpt>
      <trkpt lat="46.90459" lon="5.47723">
        <ele>217</ele>
        <time>2020-09-29T15:52:52Z</time>
      </trkpt>
      <trkpt lat="46.90495" lon="5.47695">
        <ele>216</ele>
        <time>2020-09-29T15:53:46Z</time>
      </trkpt>
      <trkpt lat="46.90507" lon="5.47681">
        <ele>216</ele>
        <time>2020-09-29T15:54:07Z</time>
      </trkpt>
      <trkpt lat="46.90515" lon="5.47668">
        <ele>216</ele>
        <time>2020-09-29T15:54:23Z</time>
      </trkpt>
      <trkpt lat="46.90521" lon="5.47649">
        <ele>215</ele>
        <time>2020-09-29T15:54:42Z</time>
      </trkpt>
      <trkpt lat="46.90524" lon="5.47629">
        <ele>215</ele>
        <time>2020-09-29T15:55:00Z</time>
      </trkpt>
      <trkpt lat="46.90524" lon="5.476">
        <ele>215</ele>
        <time>2020-09-29T15:55:27Z</time>
      </trkpt>
      <trkpt lat="46.90521" lon="5.47569">
        <ele>214</ele>
        <time>2020-09-29T15:55:55Z</time>
      </trkpt>
      <trkpt lat="46.90516" lon="5.47535">
        <ele>214</ele>
        <time>2020-09-29T15:56:27Z</time>
      </trkpt>
      <trkpt lat="46.90514" lon="5.47511">
        <ele>214</ele>
        <time>2020-09-29T15:56:49Z</time>
      </trkpt>
      <trkpt lat="46.90513" lon="5.47481">
        <ele>214</ele>
        <time>2020-09-29T15:57:16Z</time>
      </trkpt>
      <trkpt lat="46.90516" lon="5.47463">
        <ele>214</ele>
        <time>2020-09-29T15:57:33Z</time>
      </trkpt>
      <trkpt lat="46.90522" lon="5.47434">
        <ele>214</ele>
        <time>2020-09-29T15:58:01Z</time>
      </trkpt>
      <trkpt lat="46.90523" lon="5.47357">
        <ele>213</ele>
        <time>2020-09-29T15:59:11Z</time>
      </trkpt>
      <trkpt lat="46.9052" lon="5.47318">
        <ele>213</ele>
        <time>2020-09-29T15:59:47Z</time>
      </trkpt>
      <trkpt lat="46.90506" lon="5.47211">
        <ele>213</ele>
        <time>2020-09-29T16:01:26Z</time>
      </trkpt>
      <trkpt lat="46.90471" lon="5.47043">
        <ele>216</ele>
        <time>2020-09-29T16:04:06Z</time>
      </trkpt>
      <trkpt lat="46.90466" lon="5.47012">
        <ele>216</ele>
        <time>2020-09-29T16:04:35Z</time>
      </trkpt>
      <trkpt lat="46.90461" lon="5.46983">
        <ele>216</ele>
        <time>2020-09-29T16:05:03Z</time>
      </trkpt>
      <trkpt lat="46.90462" lon="5.46967">
        <ele>216</ele>
        <time>2020-09-29T16:05:17Z</time>
      </trkpt>
      <trkpt lat="46.90466" lon="5.46952">
        <ele>216</ele>
        <time>2020-09-29T16:05:32Z</time>
      </trkpt>
      <trkpt lat="46.90475" lon="5.46943">
        <ele>216</ele>
        <time>2020-09-29T16:05:47Z</time>
      </trkpt>
      <trkpt lat="46.90565" lon="5.46915">
        <ele>219</ele>
        <time>2020-09-29T16:07:49Z</time>
      </trkpt>
      <trkpt lat="46.90595" lon="5.46899">
        <ele>220</ele>
        <time>2020-09-29T16:08:32Z</time>
      </trkpt>
      <trkpt lat="46.9062" lon="5.46891">
        <ele>220</ele>
        <time>2020-09-29T16:09:06Z</time>
      </trkpt>
      <trkpt lat="46.9065" lon="5.46891">
        <ele>220</ele>
        <time>2020-09-29T16:09:46Z</time>
      </trkpt>
      <trkpt lat="46.90667" lon="5.46879">
        <ele>221</ele>
        <time>2020-09-29T16:10:11Z</time>
      </trkpt>
      <trkpt lat="46.90659" lon="5.4685">
        <ele>220</ele>
        <time>2020-09-29T16:10:40Z</time>
      </trkpt>
      <trkpt lat="46.90613" lon="5.46871">
        <ele>219</ele>
        <time>2020-09-29T16:11:44Z</time>
      </trkpt>
      <trkpt lat="46.90505" lon="5.46913">
        <ele>217</ele>
        <time>2020-09-29T16:14:13Z</time>
      </trkpt>
      <trkpt lat="46.90367" lon="5.46968">
        <ele>214</ele>
        <time>2020-09-29T16:17:24Z</time>
      </trkpt>
      <trkpt lat="46.90242" lon="5.47022">
        <ele>221</ele>
        <time>2020-09-29T16:20:18Z</time>
      </trkpt>
      <trkpt lat="46.90089" lon="5.47085">
        <ele>216</ele>
        <time>2020-09-29T16:23:50Z</time>
      </trkpt>
      <trkpt lat="46.89938" lon="5.47146">
        <ele>220</ele>
        <time>2020-09-29T16:27:19Z</time>
      </trkpt>
      <trkpt lat="46.89904" lon="5.47159">
        <ele>219</ele>
        <time>2020-09-29T16:28:06Z</time>
      </trkpt>
      <trkpt lat="46.89886" lon="5.47163">
        <ele>220</ele>
        <time>2020-09-29T16:28:30Z</time>
      </trkpt>
      <trkpt lat="46.8987" lon="5.47166">
        <ele>220</ele>
        <time>2020-09-29T16:28:52Z</time>
      </trkpt>
      <trkpt lat="46.89837" lon="5.47167">
        <ele>221</ele>
        <time>2020-09-29T16:29:36Z</time>
      </trkpt>
      <trkpt lat="46.89802" lon="5.47166">
        <ele>222</ele>
        <time>2020-09-29T16:30:23Z</time>
      </trkpt>
      <trkpt lat="46.89698" lon="5.47154">
        <ele>223</ele>
        <time>2020-09-29T16:32:42Z</time>
      </trkpt>
      <trkpt lat="46.89642" lon="5.47147">
        <ele>223</ele>
        <time>2020-09-29T16:33:57Z</time>
      </trkpt>
      <trkpt lat="46.89603" lon="5.47141">
        <ele>223</ele>
        <time>2020-09-29T16:34:49Z</time>
      </trkpt>
      <trkpt lat="46.89537" lon="5.47134">
        <ele>224</ele>
        <time>2020-09-29T16:36:18Z</time>
      </trkpt>
      <trkpt lat="46.89485" lon="5.47129">
        <ele>224</ele>
        <time>2020-09-29T16:37:27Z</time>
      </trkpt>
      <trkpt lat="46.89455" lon="5.47129">
        <ele>224</ele>
        <time>2020-09-29T16:38:07Z</time>
      </trkpt>
      <trkpt lat="46.89411" lon="5.47134">
        <ele>224</ele>
        <time>2020-09-29T16:39:06Z</time>
      </trkpt>
      <trkpt lat="46.89385" lon="5.4714">
        <ele>223</ele>
        <time>2020-09-29T16:39:41Z</time>
      </trkpt>
      <trkpt lat="46.89352" lon="5.47151">
        <ele>221</ele>
        <time>2020-09-29T16:40:26Z</time>
      </trkpt>
      <trkpt lat="46.89279" lon="5.47178">
        <ele>220</ele>
        <time>2020-09-29T16:42:07Z</time>
      </trkpt>
      <trkpt lat="46.89226" lon="5.47199">
        <ele>220</ele>
        <time>2020-09-29T16:43:20Z</time>
      </trkpt>
      <trkpt lat="46.89077" lon="5.47258">
        <ele>223</ele>
        <time>2020-09-29T16:46:46Z</time>
      </trkpt>
      <trkpt lat="46.89038" lon="5.47271">
        <ele>222</ele>
        <time>2020-09-29T16:47:39Z</time>
      </trkpt>
      <trkpt lat="46.8902" lon="5.47275">
        <ele>222</ele>
        <time>2020-09-29T16:48:04Z</time>
      </trkpt>
      <trkpt lat="46.88995" lon="5.47279">
        <ele>221</ele>
        <time>2020-09-29T16:48:37Z</time>
      </trkpt>
      <trkpt lat="46.88965" lon="5.47281">
        <ele>220</ele>
        <time>2020-09-29T16:49:17Z</time>
      </trkpt>
      <trkpt lat="46.88938" lon="5.47279">
        <ele>220</ele>
        <time>2020-09-29T16:49:53Z</time>
      </trkpt>
      <trkpt lat="46.88845" lon="5.47265">
        <ele>214</ele>
        <time>2020-09-29T16:51:58Z</time>
      </trkpt>
      <trkpt lat="46.88727" lon="5.47243">
        <ele>211</ele>
        <time>2020-09-29T16:54:37Z</time>
      </trkpt>
      <trkpt lat="46.88512" lon="5.47203">
        <ele>205</ele>
        <time>2020-09-29T16:59:26Z</time>
      </trkpt>
      <trkpt lat="46.88319" lon="5.47163">
        <ele>210</ele>
        <time>2020-09-29T17:03:46Z</time>
      </trkpt>
      <trkpt lat="46.88283" lon="5.47145">
        <ele>209</ele>
        <time>2020-09-29T17:04:37Z</time>
      </trkpt>
      <trkpt lat="46.88248" lon="5.47126">
        <ele>208</ele>
        <time>2020-09-29T17:05:27Z</time>
      </trkpt>
      <trkpt lat="46.88211" lon="5.47115">
        <ele>208</ele>
        <time>2020-09-29T17:06:17Z</time>
      </trkpt>
      <trkpt lat="46.88182" lon="5.47116">
        <ele>208</ele>
        <time>2020-09-29T17:06:56Z</time>
      </trkpt>
    </trkseg>
  </trk>
</gpx>